createdAt,value
2023-05-18T00:01:03.887Z,2.77
2023-05-18T00:03:34.204Z,2.83
2023-05-18T00:06:04.854Z,2.60
2023-05-18T00:08:33.567Z,2.90
2023-05-18T00:11:02.220Z,2.57
2023-05-18T00:13:30.723Z,3.40
2023-05-18T00:15:59.243Z,2.80
2023-05-18T00:18:28.417Z,2.83
2023-05-18T00:20:59.794Z,3.33
2023-05-18T00:23:30.021Z,2.83
2023-05-18T00:25:59.543Z,3.40
2023-05-18T00:28:27.963Z,2.70
2023-05-18T00:30:56.573Z,2.80
2023-05-18T00:33:24.972Z,3.43
2023-05-18T00:35:53.402Z,2.70
2023-05-18T00:38:23.181Z,3.37
2023-05-18T00:40:51.619Z,2.73
2023-05-18T00:43:20.331Z,2.77
2023-05-18T00:45:48.814Z,2.87
2023-05-18T00:48:17.322Z,3.77
2023-05-18T00:50:45.854Z,3.13
2023-05-18T00:53:14.264Z,2.80
2023-05-18T00:55:44.242Z,2.77
2023-05-18T00:58:12.634Z,3.40
2023-05-18T01:00:41.117Z,3.50
2023-05-18T01:03:11.334Z,3.00
2023-05-18T01:05:39.896Z,2.80
2023-05-18T01:08:08.632Z,3.23
2023-05-18T01:10:38.852Z,3.13
2023-05-18T01:13:09.018Z,3.50
2023-05-18T01:15:38.101Z,3.43
2023-05-18T01:18:10.549Z,3.30
2023-05-18T01:20:39.448Z,3.80
2023-05-18T01:23:25.587Z,4.10
2023-05-18T01:26:02.887Z,3.53
2023-05-18T01:28:31.923Z,3.50
2023-05-18T01:31:00.703Z,3.10
2023-05-18T01:33:29.274Z,3.50
2023-05-18T01:35:57.783Z,3.67
2023-05-18T01:38:26.337Z,3.53
2023-05-18T01:40:56.937Z,3.70
2023-05-18T01:43:28.873Z,3.40
2023-05-18T01:45:58.655Z,3.27
2023-05-18T01:48:27.184Z,3.43
2023-05-18T01:50:57.486Z,3.77
2023-05-18T01:53:27.207Z,3.63
2023-05-18T01:55:55.940Z,3.23
2023-05-18T01:58:24.677Z,3.50
2023-05-18T02:00:54.732Z,3.33
2023-05-18T02:03:23.362Z,3.30
2023-05-18T02:05:51.870Z,3.30
2023-05-18T02:08:20.762Z,3.87
2023-05-18T02:10:49.151Z,3.27
2023-05-18T02:13:17.734Z,3.23
2023-05-18T02:15:46.198Z,3.33
2023-05-18T02:18:16.717Z,3.10
2023-05-18T02:20:49.000Z,3.27
2023-05-18T02:23:17.741Z,3.17
2023-05-18T02:25:46.783Z,3.10
2023-05-18T02:28:15.184Z,3.10
2023-05-18T02:30:43.830Z,3.30
2023-05-18T02:33:12.317Z,3.60
2023-05-18T02:35:42.201Z,3.23
2023-05-18T02:38:10.885Z,3.07
2023-05-18T02:40:39.621Z,3.40
2023-05-18T02:43:08.038Z,3.50
2023-05-18T02:45:36.599Z,3.97
2023-05-18T02:48:05.279Z,4.00
2023-05-18T02:50:33.996Z,3.03
2023-05-18T02:53:03.932Z,3.27
2023-05-18T02:55:32.660Z,3.17
2023-05-18T02:58:02.464Z,3.30
2023-05-18T03:00:32.001Z,3.20
2023-05-18T03:03:01.020Z,2.67
2023-05-18T03:05:29.630Z,3.43
2023-05-18T03:07:58.665Z,2.93
2023-05-18T03:10:28.559Z,3.20
2023-05-18T03:12:57.084Z,3.03
2023-05-18T03:15:25.493Z,3.03
2023-05-18T03:17:54.125Z,3.00
2023-05-18T03:20:22.795Z,3.50
2023-05-18T03:22:51.359Z,2.90
2023-05-18T03:25:19.882Z,2.90
2023-05-18T03:27:50.028Z,3.17
2023-05-18T03:30:18.749Z,3.33
2023-05-18T03:32:47.462Z,3.10
2023-05-18T03:35:16.294Z,2.80
2023-05-18T03:37:44.978Z,3.17
2023-05-18T03:40:14.661Z,2.97
2023-05-18T03:42:43.477Z,2.93
2023-05-18T03:45:13.507Z,2.73
2023-05-18T03:47:42.107Z,3.10
2023-05-18T03:50:10.894Z,3.27
2023-05-18T03:52:39.434Z,3.20
2023-05-18T03:55:08.241Z,3.20
2023-05-18T03:57:37.117Z,2.93
2023-05-18T04:00:08.856Z,3.27
2023-05-18T04:02:38.770Z,3.37
2023-05-18T04:05:07.643Z,3.70
2023-05-18T04:07:44.368Z,2.80
2023-05-18T04:10:13.298Z,2.80
2023-05-18T04:12:41.963Z,2.77
2023-05-18T04:15:10.777Z,2.80
2023-05-18T04:17:43.571Z,2.77
2023-05-18T04:20:14.057Z,2.70
2023-05-18T04:22:46.586Z,2.90
2023-05-18T04:25:15.305Z,2.60
2023-05-18T04:27:45.597Z,2.83
2023-05-18T04:30:14.683Z,3.03
2023-05-18T04:32:44.559Z,3.30
2023-05-18T04:35:13.226Z,3.13
2023-05-18T04:37:43.051Z,3.00
2023-05-18T04:40:14.105Z,2.87
2023-05-18T04:42:45.823Z,3.00
2023-05-18T04:45:15.931Z,3.30
2023-05-18T04:47:46.832Z,3.00
2023-05-18T04:50:16.437Z,2.93
2023-05-18T04:52:48.031Z,3.03
2023-05-18T04:55:20.002Z,3.00
2023-05-18T04:57:48.468Z,2.87
2023-05-18T05:00:17.548Z,2.90
2023-05-18T05:02:47.691Z,3.03
2023-05-18T05:05:16.234Z,2.83
2023-05-18T05:07:44.689Z,3.10
2023-05-18T05:10:13.474Z,3.00
2023-05-18T05:12:42.806Z,3.27
2023-05-18T05:15:11.707Z,2.70
2023-05-18T05:17:40.418Z,3.00
2023-05-18T05:20:11.055Z,3.20
2023-05-18T05:22:39.654Z,3.40
2023-05-18T05:25:08.530Z,2.53
2023-05-18T05:27:37.048Z,3.33
2023-05-18T05:30:06.136Z,3.20
2023-05-18T05:32:36.248Z,2.93
2023-05-18T05:35:05.145Z,3.13
2023-05-18T05:37:35.014Z,4.00
2023-05-18T05:40:06.448Z,2.70
2023-05-18T05:42:35.060Z,3.43
2023-05-18T05:45:03.675Z,2.70
2023-05-18T05:47:32.272Z,3.20
2023-05-18T05:50:01.020Z,3.10
2023-05-18T05:52:29.812Z,2.57
2023-05-18T05:54:59.695Z,3.40
2023-05-18T05:57:28.143Z,2.60
2023-05-18T05:59:56.967Z,2.77
2023-05-18T06:02:25.484Z,2.47
2023-05-18T06:04:54.069Z,2.37
2023-05-18T06:07:22.570Z,2.97
2023-05-18T06:09:51.302Z,2.87
2023-05-18T06:12:21.448Z,2.80
2023-05-18T06:14:50.029Z,3.07
2023-05-18T06:17:18.568Z,2.83
2023-05-18T06:19:47.016Z,2.07
2023-05-18T06:22:15.469Z,2.60
2023-05-18T06:24:43.861Z,2.30
2023-05-18T06:27:12.556Z,2.93
2023-05-18T06:29:42.324Z,2.93
2023-05-18T06:32:10.914Z,2.33
2023-05-18T06:34:39.806Z,2.90
2023-05-18T06:37:08.383Z,2.93
2023-05-18T06:39:36.971Z,2.27
2023-05-18T06:42:05.709Z,2.67
2023-05-18T06:44:35.493Z,2.80
2023-05-18T06:47:05.591Z,3.20
2023-05-18T06:49:34.052Z,2.83
2023-05-18T06:52:02.483Z,2.67
2023-05-18T06:54:31.247Z,2.60
2023-05-18T06:56:59.968Z,2.83
2023-05-18T06:59:28.488Z,2.50
2023-05-18T07:01:57.539Z,2.47
2023-05-18T07:04:27.740Z,2.47
2023-05-18T07:06:56.899Z,2.67
2023-05-18T07:09:25.306Z,2.67
2023-05-18T07:11:53.773Z,3.03
2023-05-18T07:14:22.173Z,2.20
2023-05-18T07:16:50.835Z,2.40
2023-05-18T07:19:19.383Z,3.10
2023-05-18T07:21:49.489Z,2.87
2023-05-18T07:24:18.096Z,2.47
2023-05-18T07:26:46.727Z,2.63
2023-05-18T07:29:15.429Z,3.23
2023-05-18T07:31:43.973Z,2.50
2023-05-18T07:34:12.497Z,2.50
2023-05-18T07:36:41.236Z,3.10
2023-05-18T07:39:19.345Z,2.90
2023-05-18T07:41:49.693Z,2.80
2023-05-18T07:44:18.461Z,2.70
2023-05-18T07:46:47.124Z,2.43
2023-05-18T07:49:15.627Z,2.83
2023-05-18T07:51:44.047Z,2.53
2023-05-18T07:54:13.993Z,2.60
2023-05-18T07:56:44.249Z,2.80
2023-05-18T07:59:12.710Z,3.57
2023-05-18T08:01:41.584Z,2.60
2023-05-18T08:04:10.362Z,2.73
2023-05-18T08:06:38.936Z,3.23
2023-05-18T08:09:07.767Z,2.57
2023-05-18T08:11:37.748Z,3.07
2023-05-18T08:14:06.312Z,2.83
2023-05-18T08:16:37.710Z,3.33
2023-05-18T08:19:06.626Z,2.33
2023-05-18T08:21:35.328Z,2.60
2023-05-18T08:24:04.347Z,2.90
2023-05-18T08:26:33.022Z,3.27
2023-05-18T08:29:09.507Z,2.50
2023-05-18T08:31:38.158Z,2.40
2023-05-18T08:34:06.747Z,2.30
2023-05-18T08:36:36.137Z,2.80
2023-05-18T08:39:05.542Z,2.50
2023-05-18T08:41:34.568Z,2.63
2023-05-18T08:44:05.083Z,3.03
2023-05-18T08:46:35.090Z,2.83
2023-05-18T08:49:04.134Z,3.63
2023-05-18T08:51:35.950Z,2.70
2023-05-18T08:54:05.292Z,3.03
2023-05-18T08:56:34.529Z,2.83
2023-05-18T08:59:07.734Z,2.50
2023-05-18T09:01:36.580Z,2.87
2023-05-18T09:04:05.131Z,3.43
2023-05-18T09:06:34.322Z,2.70
2023-05-18T09:09:04.484Z,2.70
2023-05-18T09:11:33.501Z,2.80
2023-05-18T09:14:02.134Z,2.93
2023-05-18T09:16:32.421Z,2.70
2023-05-18T09:19:01.347Z,2.60
2023-05-18T09:21:33.691Z,2.70
2023-05-18T09:24:02.568Z,2.60
2023-05-18T09:26:31.561Z,3.60
2023-05-18T09:29:01.471Z,2.83
2023-05-18T09:31:30.337Z,2.93
2023-05-18T09:34:01.322Z,3.33
2023-05-18T09:36:35.985Z,2.77
2023-05-18T09:39:10.156Z,2.80
2023-05-18T09:41:39.606Z,3.63
2023-05-18T09:44:09.589Z,2.90
2023-05-18T09:46:41.237Z,3.83
2023-05-18T09:49:11.891Z,5.30
2023-05-18T09:51:40.640Z,3.10
2023-05-18T09:54:10.425Z,2.93
2023-05-18T09:56:39.743Z,2.77
2023-05-18T09:59:11.256Z,3.07
2023-05-18T10:01:56.816Z,2.60
2023-05-18T10:04:26.881Z,2.90
2023-05-18T10:06:55.375Z,2.73
2023-05-18T10:09:24.149Z,2.47
2023-05-18T10:11:52.637Z,3.07
2023-05-18T10:14:25.334Z,3.80
2023-05-18T10:17:03.468Z,4.77
2023-05-18T10:19:43.896Z,3.77
2023-05-18T10:22:12.417Z,3.40
2023-05-18T10:24:41.117Z,2.80
2023-05-18T10:27:09.867Z,2.90
2023-05-18T10:29:38.674Z,3.60
2023-05-18T10:32:08.058Z,3.23
2023-05-18T10:34:36.880Z,2.50
2023-05-18T10:37:07.621Z,3.00
2023-05-18T10:39:38.515Z,2.80
2023-05-18T10:42:08.800Z,2.57
2023-05-18T10:44:37.309Z,3.17
2023-05-18T10:47:06.164Z,3.17
2023-05-18T10:49:34.805Z,2.33
2023-05-18T10:52:03.287Z,2.60
2023-05-18T10:54:33.489Z,2.77
2023-05-18T10:57:03.063Z,2.40
2023-05-18T10:59:31.851Z,2.93
2023-05-18T11:02:00.664Z,3.07
2023-05-18T11:04:29.718Z,2.20
2023-05-18T11:07:00.165Z,3.17
2023-05-18T11:09:29.019Z,2.63
2023-05-18T11:11:59.943Z,3.07
2023-05-18T11:14:28.584Z,3.13
2023-05-18T11:16:57.127Z,3.37
2023-05-18T11:19:29.252Z,3.40
2023-05-18T11:21:59.576Z,2.50
2023-05-18T11:24:33.064Z,3.10
2023-05-18T11:27:06.120Z,3.57
2023-05-18T11:29:37.274Z,3.20
2023-05-18T11:32:08.261Z,3.30
2023-05-18T11:34:39.673Z,3.23
2023-05-18T11:37:10.664Z,2.57
2023-05-18T11:39:51.604Z,3.50
2023-05-18T11:42:26.878Z,3.10
2023-05-18T11:44:57.199Z,3.23
2023-05-18T11:47:27.131Z,3.43
2023-05-18T11:49:55.849Z,3.17
2023-05-18T11:52:25.203Z,3.30
2023-05-18T11:54:57.712Z,3.30
2023-05-18T11:57:27.899Z,3.37
2023-05-18T11:59:56.751Z,3.23
2023-05-18T12:02:26.909Z,3.13
2023-05-18T12:04:56.503Z,3.40
2023-05-18T12:07:25.631Z,3.70
2023-05-18T12:09:54.126Z,3.23
2023-05-18T12:12:24.160Z,3.17
2023-05-18T12:14:56.837Z,3.33
2023-05-18T12:17:25.454Z,3.20
2023-05-18T12:19:54.026Z,3.30
2023-05-18T12:22:27.483Z,3.30
2023-05-18T12:25:02.488Z,3.43
2023-05-18T12:27:31.361Z,3.23
2023-05-18T12:30:02.400Z,3.00
2023-05-18T12:32:32.123Z,3.40
2023-05-18T12:35:01.165Z,3.37
2023-05-18T12:37:37.902Z,3.00
2023-05-18T12:40:13.558Z,3.77
2023-05-18T12:42:43.196Z,3.87
2023-05-18T12:45:13.888Z,3.63
2023-05-18T12:47:46.067Z,3.70
2023-05-18T12:50:14.684Z,3.27
2023-05-18T12:52:46.541Z,3.97
2023-05-18T12:55:23.059Z,3.40
2023-05-18T12:58:02.771Z,3.43
2023-05-18T13:00:35.349Z,3.43
2023-05-18T13:03:08.822Z,3.33
2023-05-18T13:05:38.424Z,4.20
2023-05-18T13:08:08.416Z,3.10
2023-05-18T13:10:37.228Z,3.60
2023-05-18T13:13:06.359Z,3.67
2023-05-18T13:15:36.554Z,3.87
2023-05-18T13:18:10.634Z,3.23
2023-05-18T13:20:41.616Z,3.10
2023-05-18T13:23:10.695Z,2.97
2023-05-18T13:25:39.678Z,3.10
2023-05-18T13:28:11.096Z,3.50
2023-05-18T13:30:42.544Z,3.20
2023-05-18T13:33:11.543Z,3.30
2023-05-18T13:35:40.676Z,3.67
2023-05-18T13:38:09.688Z,3.10
2023-05-18T13:40:38.996Z,2.90
2023-05-18T13:43:07.571Z,3.10
2023-05-18T13:45:37.333Z,3.20
2023-05-18T13:48:12.786Z,3.13
2023-05-18T13:50:42.358Z,3.00
2023-05-18T13:53:11.711Z,2.63
2023-05-18T13:55:40.912Z,3.10
2023-05-18T13:58:09.492Z,2.70
2023-05-18T14:00:38.692Z,2.70
2023-05-18T14:03:08.638Z,3.00
2023-05-18T14:05:38.846Z,3.10
2023-05-18T14:08:07.777Z,3.00
2023-05-18T14:10:36.720Z,3.07
2023-05-18T14:13:08.879Z,2.83
2023-05-18T14:15:44.042Z,2.90
2023-05-18T14:18:12.820Z,3.53
2023-05-18T14:20:43.435Z,3.37
2023-05-18T14:23:15.059Z,2.90
2023-05-18T14:25:46.039Z,2.97
2023-05-18T14:28:20.605Z,2.90
2023-05-18T14:30:52.206Z,3.00
2023-05-18T14:33:21.155Z,2.90
2023-05-18T14:35:52.198Z,3.07
2023-05-18T14:38:20.962Z,3.20
2023-05-18T14:40:52.355Z,3.13
2023-05-18T14:43:21.254Z,2.90
2023-05-18T14:46:00.234Z,3.40
2023-05-18T14:48:36.135Z,3.23
2023-05-18T14:51:10.620Z,3.33
2023-05-18T14:53:48.349Z,3.17
2023-05-18T14:56:17.010Z,3.50
2023-05-18T14:58:45.730Z,3.40
2023-05-18T15:01:17.707Z,3.63
2023-05-18T15:03:46.327Z,3.97
2023-05-18T15:06:23.380Z,4.00
2023-05-18T15:08:55.390Z,3.60
2023-05-18T15:11:24.131Z,3.47
2023-05-18T15:13:53.407Z,3.70
2023-05-18T15:16:22.630Z,4.03
2023-05-18T15:18:51.143Z,3.37
2023-05-18T15:21:19.756Z,3.40
2023-05-18T15:23:49.806Z,3.77
2023-05-18T15:26:18.464Z,4.27
2023-05-18T15:28:47.351Z,3.90
2023-05-18T15:31:16.053Z,3.30
2023-05-18T15:33:44.891Z,3.53
2023-05-18T15:36:14.364Z,3.70
2023-05-18T15:38:43.676Z,4.00
2023-05-18T15:41:14.382Z,3.87
2023-05-18T15:43:43.679Z,3.90
2023-05-18T15:46:12.279Z,3.60
2023-05-18T15:48:40.805Z,3.80
2023-05-18T15:51:09.339Z,3.63
2023-05-18T15:53:37.788Z,3.87
2023-05-18T15:56:06.620Z,3.67
2023-05-18T15:58:36.700Z,3.53
2023-05-18T16:01:06.167Z,3.43
2023-05-18T16:03:34.995Z,3.90
2023-05-18T16:06:04.626Z,3.80
2023-05-18T16:08:33.009Z,3.57
2023-05-18T16:11:02.438Z,3.60
2023-05-18T16:13:30.918Z,3.40
2023-05-18T16:16:00.896Z,3.53
2023-05-18T16:18:29.604Z,3.30
2023-05-18T16:20:59.293Z,3.73
2023-05-18T16:23:27.787Z,4.40
2023-05-18T16:25:56.874Z,4.17
2023-05-18T16:28:25.406Z,4.00
2023-05-18T16:30:53.854Z,3.47
2023-05-18T16:33:26.589Z,4.83
2023-05-18T16:35:58.339Z,3.90
2023-05-18T16:38:26.914Z,3.57
2023-05-18T16:40:55.334Z,3.17
2023-05-18T16:43:23.823Z,3.57
2023-05-18T16:45:52.313Z,3.60
2023-05-18T16:48:25.575Z,3.57
2023-05-18T16:50:54.053Z,3.20
2023-05-18T16:53:22.525Z,3.50
2023-05-18T16:55:51.081Z,3.50
2023-05-18T16:58:19.949Z,3.90
2023-05-18T17:00:48.423Z,3.30
2023-05-18T17:03:17.438Z,3.57
2023-05-18T17:05:47.362Z,3.47
2023-05-18T17:08:15.970Z,3.27
2023-05-18T17:10:44.430Z,3.53
2023-05-18T17:13:13.031Z,3.03
2023-05-18T17:15:41.753Z,3.93
2023-05-18T17:18:10.446Z,3.90
2023-05-18T17:20:39.030Z,4.70
2023-05-18T17:23:08.947Z,3.50
2023-05-18T17:25:37.446Z,3.33
2023-05-18T17:28:05.831Z,3.37
2023-05-18T17:30:34.460Z,3.33
2023-05-18T17:33:03.035Z,4.10
2023-05-18T17:35:31.537Z,3.77
2023-05-18T17:38:00.046Z,3.73
2023-05-18T17:40:30.272Z,3.00
2023-05-18T17:42:59.264Z,3.23
2023-05-18T17:45:27.848Z,3.30
2023-05-18T17:47:56.408Z,3.10
2023-05-18T17:50:25.116Z,3.63
2023-05-18T17:52:54.477Z,3.60
2023-05-18T17:55:22.993Z,3.53
2023-05-18T17:57:52.812Z,3.07
2023-05-18T18:00:22.630Z,3.20
2023-05-18T18:02:51.310Z,3.23
2023-05-18T18:05:19.967Z,3.83
2023-05-18T18:07:48.459Z,3.47
2023-05-18T18:10:17.067Z,3.93
2023-05-18T18:12:45.626Z,3.73
2023-05-18T18:15:16.375Z,3.63
2023-05-18T18:17:45.016Z,3.30
2023-05-18T18:20:13.847Z,3.30
2023-05-18T18:22:43.354Z,3.30
2023-05-18T18:25:11.886Z,3.40
2023-05-18T18:27:40.572Z,3.33
2023-05-18T18:30:09.497Z,3.40
2023-05-18T18:32:39.560Z,3.70
2023-05-18T18:35:08.201Z,3.13
2023-05-18T18:37:37.108Z,3.70
2023-05-18T18:40:06.754Z,2.83
2023-05-18T18:42:35.191Z,3.20
2023-05-18T18:45:03.670Z,3.10
2023-05-18T18:47:32.109Z,3.30
2023-05-18T18:50:02.796Z,2.73
2023-05-18T18:52:31.313Z,2.90
2023-05-18T18:54:59.753Z,2.87
2023-05-18T18:57:28.194Z,2.70
2023-05-18T18:59:58.722Z,3.33
2023-05-18T19:02:27.313Z,3.00
2023-05-18T19:04:58.764Z,3.07
2023-05-18T19:07:28.693Z,3.30
2023-05-18T19:09:57.120Z,3.27
2023-05-18T19:12:25.792Z,2.90
2023-05-18T19:14:54.299Z,2.63
2023-05-18T19:17:23.306Z,2.70
2023-05-18T19:19:52.326Z,3.10
2023-05-18T19:22:20.842Z,3.13
2023-05-18T19:24:50.891Z,2.80
2023-05-18T19:27:19.437Z,3.40
2023-05-18T19:29:47.966Z,3.03
2023-05-18T19:32:16.449Z,3.40
2023-05-18T19:34:44.976Z,2.93
2023-05-18T19:37:13.394Z,3.10
2023-05-18T19:39:42.084Z,3.70
2023-05-18T19:42:11.830Z,3.13
2023-05-18T19:44:40.566Z,3.47
2023-05-18T19:47:09.092Z,3.00
2023-05-18T19:49:37.647Z,2.70
2023-05-18T19:52:08.422Z,2.70
2023-05-18T19:54:37.088Z,3.40
2023-05-18T19:57:06.224Z,3.10
2023-05-18T19:59:36.343Z,3.70
2023-05-18T20:02:05.379Z,3.23
2023-05-18T20:04:34.612Z,3.23
2023-05-18T20:07:03.169Z,3.23
2023-05-18T20:09:31.754Z,3.90
2023-05-18T20:12:00.715Z,4.17
2023-05-18T20:14:30.509Z,4.60
2023-05-18T20:17:01.859Z,5.40
2023-05-18T20:19:31.430Z,4.50
2023-05-18T20:21:59.902Z,5.20
2023-05-18T20:24:33.020Z,4.27
2023-05-18T20:27:02.181Z,4.03
2023-05-18T20:29:30.846Z,4.03
2023-05-18T20:32:00.797Z,3.90
2023-05-18T20:34:29.549Z,4.23
2023-05-18T20:36:58.047Z,4.00
2023-05-18T20:39:28.674Z,4.77
2023-05-18T20:41:58.797Z,3.90
2023-05-18T20:44:28.748Z,4.00
2023-05-18T20:46:57.192Z,4.17
2023-05-18T20:49:27.085Z,4.03
2023-05-18T20:51:55.521Z,4.03
2023-05-18T20:54:24.185Z,4.73
2023-05-18T20:56:56.200Z,5.43
2023-05-18T20:59:24.808Z,5.07
2023-05-18T21:01:53.535Z,5.23
2023-05-18T21:04:22.164Z,4.80
2023-05-18T21:06:52.075Z,4.47
2023-05-18T21:09:20.792Z,4.70
2023-05-18T21:11:49.503Z,5.40
2023-05-18T21:14:18.428Z,4.50
2023-05-18T21:16:47.010Z,5.03
2023-05-18T21:19:15.580Z,4.73
2023-05-18T21:21:44.574Z,4.30
2023-05-18T21:24:14.445Z,4.07
2023-05-18T21:26:43.201Z,4.00
2023-05-18T21:29:11.674Z,5.57
2023-05-18T21:31:40.296Z,4.37
2023-05-18T21:34:08.858Z,4.77
2023-05-18T21:36:37.396Z,5.20
2023-05-18T21:39:09.441Z,5.33
2023-05-18T21:41:40.474Z,4.67
2023-05-18T21:44:08.872Z,6.10
2023-05-18T21:46:37.640Z,4.80
2023-05-18T21:49:06.577Z,4.97
2023-05-18T21:51:35.157Z,4.80
2023-05-18T21:54:04.146Z,5.07
2023-05-18T21:56:34.621Z,5.23
2023-05-18T21:59:04.700Z,5.23
2023-05-18T22:01:33.282Z,5.60
2023-05-18T22:04:01.822Z,5.50
2023-05-18T22:06:30.266Z,5.17
2023-05-18T22:08:58.699Z,5.43
2023-05-18T22:11:27.122Z,5.30
2023-05-18T22:13:55.713Z,4.83
2023-05-18T22:16:25.592Z,5.00
2023-05-18T22:18:54.117Z,6.03
2023-05-18T22:21:22.709Z,5.47
2023-05-18T22:23:51.096Z,5.20
2023-05-18T22:26:20.270Z,5.13
2023-05-18T22:28:48.966Z,5.30
2023-05-18T22:31:17.674Z,5.07
2023-05-18T22:33:47.688Z,5.30
2023-05-18T22:36:16.137Z,5.20
2023-05-18T22:38:46.121Z,5.30
2023-05-18T22:41:15.235Z,6.23
2023-05-18T22:43:43.581Z,6.07
2023-05-18T22:46:12.088Z,6.33
2023-05-18T22:48:41.524Z,5.43
2023-05-18T22:51:11.416Z,5.47
2023-05-18T22:53:40.017Z,5.90
2023-05-18T22:56:09.373Z,6.10
2023-05-18T22:58:37.957Z,5.97
2023-05-18T23:01:06.528Z,5.93
2023-05-18T23:03:35.007Z,5.97
2023-05-18T23:06:03.514Z,5.47
2023-05-18T23:08:37.087Z,5.53
2023-05-18T23:11:07.177Z,5.63
2023-05-18T23:13:37.684Z,5.50
2023-05-18T23:16:10.309Z,5.40
2023-05-18T23:18:39.096Z,5.83
2023-05-18T23:21:09.177Z,5.17
2023-05-18T23:23:39.109Z,5.90
2023-05-18T23:26:07.556Z,5.47
2023-05-18T23:28:36.110Z,5.47
2023-05-18T23:31:04.684Z,5.40
2023-05-18T23:33:33.572Z,5.23
2023-05-18T23:36:04.122Z,5.30
2023-05-18T23:38:37.864Z,5.20
2023-05-18T23:41:07.958Z,5.60
2023-05-18T23:43:36.755Z,5.33
2023-05-18T23:46:06.111Z,5.30
2023-05-18T23:48:34.924Z,4.93
2023-05-18T23:51:03.727Z,5.00
2023-05-18T23:53:32.360Z,4.90
2023-05-18T23:56:01.066Z,4.90
2023-05-18T23:58:32.131Z,5.30
